Williamsburg, Michigan
Current Conditions -  °F | °C
As of 5:45 PM on Thursday 20 Nov 2014 (Local Time) from KTVC Reporting Station
Light Snow Light Snow  
Wind Chill:   Ceiling: 2500
Heat Index: 19°   Visibility: 2mi
Dew Point: 12°   Wind: 12mph
Humidity: 74%   Direction: 290°WNW
Pressure: 29.99"   Gusts: NA
Location:  44.77°N, 85.4°W
Report Text: KTVC 202245Z 29010KT 2SM -SN OVC025 M07/M11 A2999 RMK AO2 SFC VIS 3 P0000 T10721111
Loading
Personal Weather Stations






























Interactive Weather Map New forecast layout! Learn more

10-Day Weather Forecast

Advertisements
Track Severe Weather on mobile